Tiempo atmosférico en la estación meteorológica de Caldes De Montbui, Barcelona (168 m.)



Fecha
DESCASC
Temp. máxima en grados centígrados (hora)
DESCASC
Temp. mínima en grados centígrados (hora)
DESCASC
Temp. media en grados centígrados
DESCASC
Racha de viento máxima en m/sg (hora)
DESCASC
Velocidad máxima media en intervalos de 10 minutos(hora)
DESCASC
Precipitaciones diarias en mm
DESCASC
Precipitaciones de 00:00 a 06:00 en mm
DESCASC
Precipitaciones de 06:00 a 12:00 en mm
DESCASC
Precipitaciones de 12:00 a 18:00 en mm
DESCASC
Precipitaciones de 18:00 a 24:00 en mm
DESCASC
31-03-2020 12.9 (13:50) 7.5 (00:00) 10.2 6.39 (17:40) 3.33 (18:30) 2.2 0 0 0.8 1.4
30-03-2020 10.7 (04:40) 7.4 (23:30) 9 4.17 (06:50) 2.5 (11:10) 3 0.2 0.2 1.4 1.2
29-03-2020 20.3 (15:00) 3.6 (00:00) 11.9 7.22 (16:10) 4.72 (16:10) 1 0 0 0.2 0.8
28-03-2020 18.4 (14:30) 5.2 (00:00) 11.8 6.67 (15:20) 5 (15:30) 0 0 0 0 0
27-03-2020 14.9 (14:10) -1.4 (-00:0) 6.7 6.11 (16:40) 3.33 (16:30) 0.2 0 0 0 0.2
26-03-2020 11.3 (11:10) -0.1 (00:00) 5.6 9.72 (16:30) 4.72 (16:00) 0 0 0 0 0
25-03-2020 12.4 (12:30) 2.1 (00:00) 7.2 8.33 (03:40) 4.44 (07:00) 0 0 0 0 0
24-03-2020 13.9 (11:50) 8.1 (00:00) 11 9.72 (12:50) 4.72 (13:40) 0 0 0 0 0
23-03-2020 16.4 (13:50) 10.5 (00:00) 13.4 8.33 (20:30) 4.44 (20:30) 13.6 2.8 10.6 0 0.2
22-03-2020 15.7 (11:00) 6.3 (05:20) 11 6.67 (11:10) 3.89 (17:10) 0.8 0 0 0.8 0
21-03-2020 17.5 (15:10) 2.5 (00:00) 10 5.83 (12:00) 3.33 (04:40) 0 0 0 0 0
20-03-2020 17.4 (14:00) 3.1 (00:00) 10.2 9.17 (12:10) 4.72 (16:20) 0 0 0 0 0
19-03-2020 16.8 (15:20) 4.6 (00:00) 10.7 6.67 (13:00) 4.17 (13:00) 0 0 0 0 0
18-03-2020 17.5 (15:40) 7.1 (00:00) 12.3 3.89 (13:10) 2.5 (00:30) 0 0 0 0 0
17-03-2020 16.6 (15:50) 9.2 (00:00) 12.9 7.78 (15:40) 3.89 (15:40) 0.2 0.2 0 0 0
16-03-2020 13.2 (10:40) 11.3 (00:00) 12.3 9.44 (12:40) 4.44 (11:40) 22.6 0 0 22.6 0
15-03-2020 17.4 (13:50) 7.5 (00:00) 12.4 8.33 (17:20) 5.28 (17:20) 0 0 0 0 0
14-03-2020 16.8 (14:10) 7.8 (00:00) 12.3 6.11 (15:10) 3.61 (15:10) 0 0 0 0 0
13-03-2020 21.1 (14:30) 6.8 (07:00) 14 6.67 (14:30) 4.17 (14:40) 0 0 0 0 0
12-03-2020 23.5 (15:10) 5.7 (00:00) 14.6 5.28 (16:40) 4.17 (16:40) 0 0 0 0 0
11-03-2020 21.2 (14:40) 4.6 (00:00) 12.9 5.56 (15:00) 4.44 (15:10) 0 0 0 0 0
10-03-2020 18.2 (14:10) 3.9 (00:00) 11.1 6.67 (15:30) 4.17 (16:20) 0 0 0 0 0
09-03-2020 19 (14:30) 4 (00:00) 11.5 8.61 (14:40) 4.44 (14:50) 0 0 0 0 0
08-03-2020 18.6 (14:10) 2.6 (00:00) 10.6 7.22 (15:30) 4.72 (15:30) 0 0 0 0 0
07-03-2020 16.9 (14:30) -0.9 (-00:0) 8 9.72 (00:10) 5.28 (00:10) 0 0 0 0 0
06-03-2020 16 (14:20) 4.5 (00:00) 10.3 18.89 (14:40) 12.5 (14:40) 0 0 0 0 0
05-03-2020 20.3 (15:00) 4.8 (00:00) 12.5 17.22 (17:50) 9.17 (18:00) 0 0 0 0 0
04-03-2020 16.2 (13:00) 3.1 (00:00) 9.7 5.56 (14:00) 2.78 (01:00) 0 0 0 0 0
03-03-2020 13.8 (15:40) 1.9 (00:00) 7.9 15.28 (13:50) 8.33 (13:30) 0 0 0 0 0

Gráficas

Temp. máximas Temp. mínimas Temp. medias Precipitaciones Rachas de viento máximas Velocidades máximas media en intervalos de 10 minutos

Datos horarios

Fecha y hora oficial Temperatura (ºC) Velocidad del viento (km/h) Dirección del viento Racha (km/h) Dirección de racha Precipitación (mm) Presión (hPa) Tendencia (hPa) Humedad (%)
2020-04-01 23:00:00 8.7 5 Oeste 11 Oeste 0 -- -- 97
2020-04-01 22:00:00 8.9 2 Sudeste 15 Norte 0.2 -- -- 95
2020-04-01 21:00:00 9.2 9 Norte 29 Norte 4 -- -- 93
2020-04-01 20:00:00 9.3 8 Norte 25 Este 3.6 -- -- 92
2020-04-01 19:00:00 9.9 13 Este 42 Este 0.4 -- -- 87
2020-04-01 18:00:00 10.6 13 Nordeste 38 Norte 0 -- -- 81
2020-04-01 17:00:00 10.5 14 Nordeste 40 Nordeste 0 -- -- 83
2020-04-01 16:00:00 11 13 Nordeste 39 Nordeste 0 -- -- 83
2020-04-01 15:00:00 10.5 10 Norte 30 Norte 0 -- -- 87
2020-04-01 14:00:00 10.5 15 Norte 31 Norte 0 -- -- 88
2020-04-01 13:00:00 10.5 14 Norte 28 Nordeste 0.2 -- -- 87
2020-04-01 12:00:00 10.2 14 Norte 31 Nordeste 0.4 -- -- 90
2020-04-01 11:00:00 10.4 9 Nordeste 35 Norte 0.4 -- -- 88
2020-04-01 10:00:00 9.9 9 Norte 23 Este 0.4 -- -- 91
2020-04-01 09:00:00 9.8 12 Nordeste 37 Norte 0.8 -- -- 90
2020-04-01 08:00:00 10.2 11 Nordeste 29 Norte 0 -- -- 90
2020-04-01 07:00:00 10.4 17 Norte 30 Nordeste 0.2 -- -- 92
2020-04-01 06:00:00 10.7 9 Nordeste 23 Norte 1.2 -- -- 92
2020-04-01 05:00:00 10.8 11 Norte 22 Nordeste 0 -- -- 92
2020-04-01 04:00:00 10.6 5 Norte 23 Norte 0 -- -- 91
2020-04-01 03:00:00 10.7 8 Norte 19 Norte 0 -- -- 90
2020-04-01 02:00:00 10.6 6 Norte 18 Norte 0 -- -- 88
2020-04-01 01:00:00 10.3 5 Norte 12 Nordeste 0 -- -- 84
2020-04-01 00:00:00 10.1 5 Norte 12 Noroeste 0 -- -- 83
2020-03-31 23:00:00 10.3 2 Este 15 Norte 0 -- -- 82
2020-03-31 22:00:00 10.4 4 Nordeste 16 Norte 0 -- -- 85
2020-03-31 21:00:00 10 5 Nordeste 17 Norte 0 -- -- 89
2020-03-31 20:00:00 10 6 Norte 17 Norte 0.4 -- -- 91
2020-03-31 19:00:00 10.1 9 Norte 23 Norte 1 -- -- 92
2020-03-31 18:00:00 10.7 10 Norte 23 Nordeste 0.2 -- -- 87
2020-03-31 17:00:00 10.9 9 Norte 20 Norte 0.4 -- -- 87
2020-03-31 16:00:00 11.5 3 Este 20 Nordeste 0.2 -- -- 81
2020-03-31 15:00:00 12.1 10 Norte 22 Norte 0 -- -- 75
2020-03-31 14:00:00 12.9 6 Nordeste 16 Norte 0 -- -- 73
2020-03-31 13:00:00 12 8 Nordeste 22 Nordeste 0 -- -- 75
2020-03-31 12:00:00 10.9 5 Nordeste 17 Norte 0 -- -- 78
2020-03-31 11:00:00 10 6 Norte 13 Nordeste 0 -- -- 81
2020-03-31 10:00:00 9.6 2 Sudeste 11 Norte 0 -- -- 87
2020-03-31 09:00:00 8.9 6 Noroeste 12 Norte 0 -- -- 88
2020-03-31 08:00:00 8.3 5 Norte 11 Nordeste 0 -- -- 88
2020-03-31 07:00:00 8 3 Norte 13 Norte 0 -- -- 93
2020-03-31 06:00:00 7.7 3 Norte 13 Nordeste 0 -- -- 95
2020-03-31 05:00:00 7.7 0 Calma 7 Sudoeste 0 -- -- 96
2020-03-31 04:00:00 7.8 3 Sudeste 7 Norte 0 -- -- 96
2020-03-31 03:00:00 7.7 5 Norte 8 Norte 0 -- -- 97
2020-03-31 02:00:00 7.7 0 Calma 7 Oeste 0 -- -- 96
2020-03-31 01:00:00 7.5 6 Sudoeste 8 Sudoeste 0 -- -- 96
2020-03-31 00:00:00 7.5 3 Sur 6 Noroeste 0 -- -- 96
2020-03-30 23:00:00 7.6 2 Noroeste 4 Sudeste 0 -- -- 96
2020-03-30 22:00:00 7.6 2 Sudeste 3 Este 0 -- -- 96
2020-03-30 21:00:00 7.5 0 Calma 4 Este 0 -- -- 94
2020-03-30 20:00:00 7.7 3 Este 6 Sur 0 -- -- 93
2020-03-30 19:00:00 8.1 0 Calma 5 Sudeste 1.2 -- -- 86
2020-03-30 18:00:00 8.4 2 Sur 14 Noroeste 0.2 -- -- 81
2020-03-30 17:00:00 9 3 Sur 9 Este 0 -- -- 79
2020-03-30 16:00:00 8.5 3 Sur 6 Sudeste 0.6 -- -- 84
2020-03-30 15:00:00 8.4 3 Nordeste 9 Noroeste 0.2 -- -- 86
2020-03-30 14:00:00 8.6 2 Noroeste 15 Oeste 0.4 -- -- 84
2020-03-30 13:00:00 9.1 4 Oeste 11 Noroeste 0 -- -- 85
2020-03-30 12:00:00 8.6 7 Noroeste 15 Oeste 0.2 -- -- 89
2020-03-30 11:00:00 9.8 7 Sudoeste 10 Oeste 0 -- -- 89
2020-03-30 10:00:00 9.9 0 Calma 3 Nordeste 0 -- -- 89
2020-03-30 09:00:00 9.5 0 Calma 8 Noroeste 0 -- -- 90
2020-03-30 08:00:00 9.6 3 Norte 10 Noroeste 0 -- -- 87
2020-03-30 07:00:00 9.7 6 Noroeste 15 Noroeste 0 -- -- 86
2020-03-30 06:00:00 10.1 4 Nordeste 14 Este 0 -- -- 85
2020-03-30 05:00:00 10.7 4 Este 8 Este 0 -- -- 90
2020-03-30 04:00:00 10.4 3 Este 7 Este 0 -- -- 92
2020-03-30 03:00:00 10.3 5 Noroeste 12 Noroeste 0 -- -- 90
2020-03-30 02:00:00 9.3 6 Noroeste 10 Noroeste 0.2 -- -- 90
2020-03-30 01:00:00 10.1 7 Noroeste 10 Noroeste 0 -- -- 93
2020-03-30 00:00:00 10.6 7 Noroeste 19 Noroeste 0 -- -- 89
2020-03-29 23:00:00 10.7 10 Noroeste 16 Noroeste 0 -- -- 89
2020-03-29 22:00:00 11.4 8 Noroeste 17 Noroeste 0 -- -- 87
2020-03-29 21:00:00 11.5 9 Noroeste 12 Noroeste 0 -- -- 89
2020-03-29 20:00:00 13 6 Noroeste 23 Nordeste 0.8 -- -- 81
2020-03-29 19:00:00 14.9 3 Este 6 Este 0 -- -- 74
2020-03-29 18:00:00 14.5 5 Este 17 Norte 0.2 -- -- 76
2020-03-29 17:00:00 17.3 7 Este 26 Sudeste 0 -- -- 58
2020-03-29 16:00:00 19.6 16 Sudeste 25 Sudeste 0 -- -- 50
2020-03-29 15:00:00 20.3 10 Sudeste 22 Sudeste 0 -- -- 42
2020-03-29 14:00:00 19.5 10 Sudeste 18 Sudeste 0 -- -- 48
2020-03-29 13:00:00 18.2 7 Sudeste 13 Sudeste 0 -- -- 55
2020-03-29 12:00:00 16 8 Sudeste 13 Sudeste 0 -- -- 67
2020-03-29 11:00:00 13.5 3 Este 9 Sudeste 0 -- -- 68
2020-03-29 10:00:00 10.1 6 Sudeste 9 Sudeste 0 -- -- 83
2020-03-29 09:00:00 5.8 3 Noroeste 6 Noroeste 0 -- -- 96
2020-03-29 08:00:00 3.7 4 Noroeste 6 Noroeste 0 -- -- 97
2020-03-29 07:00:00 4.2 5 Noroeste 6 Noroeste 0 -- -- 94
2020-03-29 06:00:00 4 3 Noroeste 5 Norte 0 -- -- 96
2020-03-29 05:00:00 5.7 4 Noroeste 9 Noroeste 0 -- -- 93
2020-03-29 03:00:00 5.6 4 Noroeste 8 Noroeste 0 -- -- 93
2020-03-29 01:00:00 6 4 Noroeste 8 Noroeste 0 -- -- 93
2020-03-29 00:00:00 7.7 3 Noroeste 7 Oeste 0 -- -- 89
2020-03-28 23:00:00 8.5 3 Noroeste 6 Norte 0 -- -- 91
2020-03-28 22:00:00 9.9 6 Oeste 13 Noroeste 0 -- -- 85
2020-03-28 21:00:00 9.9 6 Noroeste 8 Noroeste 0 -- -- 88
2020-03-28 20:00:00 11.4 0 Calma 8 Sudeste 0 -- -- 79
2020-03-28 19:00:00 13.4 5 Sur 9 Sudeste 0 -- -- 67
2020-03-28 18:00:00 14.7 7 Sudeste 17 Sur 0 -- -- 63
2020-03-28 17:00:00 15.9 14 Sudeste 22 Sudeste 0 -- -- 56
2020-03-28 16:00:00 16.1 15 Sudeste 24 Sudeste 0 -- -- 57
2020-03-28 15:00:00 18.1 14 Sudeste 19 Sudeste 0 -- -- 50
2020-03-28 14:00:00 17.4 5 Sudeste 18 Sudeste 0 -- -- 47
2020-03-28 13:00:00 17.1 8 Sudeste 17 Sudeste 0 -- -- 48
2020-03-28 12:00:00 15.9 6 Sudeste 15 Sudeste 0 -- -- 54
2020-03-28 11:00:00 14.4 7 Sudeste 10 Sudeste 0 -- -- 62
2020-03-28 10:00:00 10.9 2 Norte 6 Oeste 0 -- -- 78
2020-03-28 09:00:00 9.8 0 Calma 6 Sudeste 0 -- -- 82
2020-03-28 08:00:00 8 0 Calma 6 Noroeste 0 -- -- 94
2020-03-28 07:00:00 5.3 2 Noroeste 5 Norte 0 -- -- 94
2020-03-28 06:00:00 6.8 0 Calma 5 Noroeste 0 -- -- 95
2020-03-28 05:00:00 6.7 3 Noroeste 8 Noroeste 0 -- -- 93
2020-03-28 04:00:00 6.7 6 Oeste 11 Sudeste 0 -- -- 96
2020-03-28 03:00:00 7.2 3 Sudeste 9 Oeste 0 -- -- 92
2020-03-28 02:00:00 7.2 0 Calma 7 Noroeste 0 -- -- 93
2020-03-28 01:00:00 7.1 0 Calma 6 Noroeste 0 -- -- 95
2020-03-28 00:00:00 7.3 0 Calma 5 Noroeste 0 -- -- 94
2020-03-27 23:00:00 7.3 3 Noroeste 5 Sudeste 0 -- -- 93
2020-03-27 22:00:00 7.9 3 Este 12 Oeste 0 -- -- 90
2020-03-27 21:00:00 7.9 9 Noroeste 12 Noroeste 0 -- -- 90
2020-03-27 20:00:00 8.4 9 Oeste 11 Oeste 0 -- -- 89
2020-03-27 19:00:00 9.5 6 Sur 10 Sur 0.2 -- -- 81
2020-03-27 18:00:00 11 8 Este 20 Este 0 -- -- 65
2020-03-27 17:00:00 12.8 10 Este 22 Este 0 -- -- 50
2020-03-27 16:00:00 14.3 7 Este 15 Este 0 -- -- 40
2020-03-27 15:00:00 14.3 10 Sudeste 18 Sudeste 0 -- -- 44
2020-03-27 14:00:00 14.6 5 Sur 12 Sur 0 -- -- 39
2020-03-27 13:00:00 13.3 5 Oeste 14 Sudoeste 0 -- -- 43
2020-03-27 12:00:00 12.6 5 Sudoeste 11 Sur 0 -- -- 47
2020-03-27 11:00:00 10.3 4 Sudeste 10 Este 0 -- -- 68
2020-03-27 10:00:00 8.6 6 Este 10 Este 0 -- -- 77
2020-03-27 09:00:00 4.3 2 Este 5 Sudeste 0 -- -- 89
2020-03-27 08:00:00 2.4 5 Sudeste 9 Sudeste 0 -- -- 99
2020-03-27 07:00:00 -1.2 3 Noroeste 4 Noroeste 0 -- -- 98
2020-03-27 06:00:00 -1 0 Calma 5 Noroeste 0 -- -- 97
2020-03-27 05:00:00 -1 0 Calma 5 Noroeste 0 -- -- 96
2020-03-27 04:00:00 -0.6 4 Noroeste 8 Noroeste 0 -- -- 95
2020-03-27 03:00:00 -0.3 3 Noroeste 6 Noroeste 0 -- -- 94
2020-03-27 02:00:00 0.9 6 Noroeste 14 Noroeste 0 -- -- 93
2020-03-27 01:00:00 1.2 5 Noroeste 13 Noroeste 0 -- -- 92
2020-03-27 00:00:00 2 9 Noroeste 13 Noroeste 0 -- -- 90
2020-03-26 23:00:00 2.5 11 Noroeste 15 Noroeste 0 -- -- 88
2020-03-26 22:00:00 2.9 10 Noroeste 14 Noroeste 0 -- -- 90
2020-03-26 21:00:00 3.4 10 Noroeste 13 Noroeste 0 -- -- 90
2020-03-26 20:00:00 5.3 3 Oeste 14 Este 0 -- -- 80
2020-03-26 19:00:00 7.9 6 Este 24 Este 0 -- -- 68
2020-03-26 18:00:00 8.8 10 Este 23 Nordeste 0 -- -- 66
2020-03-26 17:00:00 9.7 11 Nordeste 35 Norte 0 -- -- 66
2020-03-26 16:00:00 9.3 17 Norte 35 Nordeste 0 -- -- 64
2020-03-26 15:00:00 10 13 Nordeste 33 Este 0 -- -- 65
2020-03-26 14:00:00 9.3 12 Nordeste 34 Nordeste 0 -- -- 66
2020-03-26 13:00:00 9.8 12 Nordeste 33 Nordeste 0 -- -- 66
2020-03-26 12:00:00 9.9 15 Nordeste 33 Norte 0 -- -- 69
2020-03-26 11:00:00 11 8 Nordeste 22 Este 0 -- -- 64
2020-03-26 10:00:00 9.8 5 Este 10 Sudeste 0 -- -- 70
2020-03-26 09:00:00 7.9 2 Nordeste 7 Sudeste 0 -- -- 76
2020-03-26 08:00:00 3.9 6 Oeste 10 Oeste 0 -- -- 100
2020-03-26 07:00:00 0.6 3 Oeste 8 Noroeste 0 -- -- 99
2020-03-26 06:00:00 0.4 2 Oeste 11 Este 0 -- -- 98
2020-03-26 05:00:00 0.4 3 Noroeste 9 Oeste 0 -- -- 98
2020-03-26 04:00:00 0.3 2 Noroeste 5 Noroeste 0 -- -- 97
2020-03-26 03:00:00 0.8 5 Noroeste 6 Noroeste 0 -- -- 96
2020-03-26 02:00:00 1.6 4 Noroeste 8 Noroeste 0 -- -- 95
2020-03-26 01:00:00 1.6 3 Noroeste 7 Oeste 0 -- -- 95
2020-03-26 00:00:00 2.5 5 Noroeste 8 Noroeste 0 -- -- 95
2020-03-25 23:00:00 3.1 3 Noroeste 6 Noroeste 0 -- -- 94
2020-03-25 22:00:00 4.6 5 Noroeste 10 Oeste 0 -- -- 93
2020-03-25 21:00:00 4.6 7 Noroeste 10 Noroeste 0 -- -- 91
2020-03-25 20:00:00 6 5 Noroeste 8 Noroeste 0 -- -- 89
2020-03-25 19:00:00 8 2 Noroeste 11 Sudeste 0 -- -- 80
2020-03-25 18:00:00 8.3 9 Sudeste 20 Sudeste 0 -- -- 76
2020-03-25 17:00:00 9.3 13 Sudeste 22 Sudeste 0 -- -- 69
2020-03-25 16:00:00 9.6 12 Sudeste 20 Sudeste 0 -- -- 68
2020-03-25 15:00:00 10.2 8 Sudeste 18 Sudeste 0 -- -- 59
2020-03-25 14:00:00 10.7 9 Sudeste 20 Este 0 -- -- 53
2020-03-25 13:00:00 11.9 10 Este 18 Este 0 -- -- 48
2020-03-25 12:00:00 11.9 7 Nordeste 17 Nordeste 0 -- -- 46
2020-03-25 11:00:00 11.4 5 Este 20 Nordeste 0 -- -- 48
2020-03-25 10:00:00 10.2 7 Noroeste 15 Noroeste 0 -- -- 52
2020-03-25 09:00:00 8.1 10 Noroeste 17 Noroeste 0 -- -- 65
2020-03-25 08:00:00 7.1 5 Noroeste 22 Norte 0 -- -- 65
2020-03-25 07:00:00 7.3 16 Noroeste 27 Noroeste 0 -- -- 59
2020-03-25 06:00:00 6.8 8 Noroeste 21 Noroeste 0 -- -- 68
2020-03-25 05:00:00 6.8 13 Noroeste 22 Noroeste 0 -- -- 69
2020-03-25 04:00:00 8 8 Norte 30 Norte 0 -- -- 52
2020-03-25 03:00:00 8.2 7 Nordeste 18 Nordeste 0 -- -- 62
2020-03-25 02:00:00 8.3 4 Nordeste 22 Norte 0 -- -- 64
2020-03-25 01:00:00 8.3 4 Nordeste 14 Nordeste 0 -- -- 63
2020-03-25 00:00:00 8.3 4 Nordeste 15 Nordeste 0 -- -- 67
2020-03-24 23:00:00 8.2 3 Nordeste 13 Norte 0 -- -- 69
2020-03-24 22:00:00 8.1 3 Nordeste 16 Norte 0 -- -- 71
2020-03-24 21:00:00 8.7 6 Norte 27 Nordeste 0 -- -- 70
2020-03-24 20:00:00 9.3 9 Nordeste 25 Este 0 -- -- 70
2020-03-24 19:00:00 9.7 11 Nordeste 30 Nordeste 0 -- -- 69
2020-03-24 18:00:00 10.4 10 Nordeste 26 Norte 0 -- -- 71
2020-03-24 17:00:00 11.4 10 Nordeste 27 Este 0 -- -- 68
2020-03-24 16:00:00 12.5 9 Nordeste 30 Este 0 -- -- 62
2020-03-24 15:00:00 13.1 12 Nordeste 30 Este 0 -- -- 58
2020-03-24 14:00:00 13.5 14 Este 35 Nordeste 0 -- -- 59
2020-03-24 13:00:00 13.1 14 Este 35 Este 0 -- -- 64
2020-03-24 12:00:00 13.6 14 Este 29 Este 0 -- -- 63
2020-03-24 11:00:00 12.9 13 Este 26 Este 0 -- -- 62
2020-03-24 10:00:00 12.6 6 Nordeste 22 Este 0 -- -- 68
2020-03-24 09:00:00 11.1 6 Norte 17 Norte 0 -- -- 78
2020-03-24 08:00:00 9.5 4 Nordeste 10 Nordeste 0 -- -- 87
2020-03-24 07:00:00 8.6 3 Norte 12 Norte 0 -- -- 89
2020-03-24 06:00:00 9.4 6 Norte 14 Nordeste 0 -- -- 87
2020-03-24 05:00:00 9.9 6 Este 16 Norte 0 -- -- 85
2020-03-24 04:00:00 10.4 7 Norte 18 Norte 0 -- -- 81
2020-03-24 03:00:00 10.5 6 Norte 18 Nordeste 0 -- -- 81
2020-03-24 02:00:00 10.4 5 Nordeste 17 Este 0 -- -- 83
2020-03-24 01:00:00 10.9 4 Este 19 Norte 0 -- -- 83
2020-03-24 00:00:00 10.9 9 Este 21 Este 0 -- -- 86
2020-03-23 23:00:00 11.2 7 Nordeste 20 Norte 0 -- -- 85
2020-03-23 22:00:00 11.5 8 Norte 27 Nordeste 0 -- -- 85
2020-03-23 21:00:00 11.7 9 Nordeste 30 Nordeste 0 -- -- 83
2020-03-23 20:00:00 11.8 9 Nordeste 30 Nordeste 0 -- -- 84
2020-03-23 19:00:00 13 9 Este 23 Nordeste 0.2 -- -- 78
2020-03-23 18:00:00 14.6 10 Nordeste 23 Este 0 -- -- 71
2020-03-23 17:00:00 15.3 10 Nordeste 28 Norte 0 -- -- 70
2020-03-23 16:00:00 14.5 10 Este 27 Nordeste 0 -- -- 77
2020-03-23 15:00:00 15.3 11 Este 28 Este 0 -- -- 74
2020-03-23 14:00:00 16.4 10 Norte 22 Norte 0 -- -- 72
2020-03-23 13:00:00 15.5 8 Este 17 Este 0 -- -- 82
2020-03-23 12:00:00 12.5 12 Norte 20 Norte 0.8 -- -- 93
2020-03-23 11:00:00 11.6 6 Norte 10 Nordeste 2.6 -- -- 97
2020-03-23 10:00:00 11.3 4 Este 10 Norte 2.6 -- -- 98
2020-03-23 09:00:00 11.1 7 Norte 13 Nordeste 2 -- -- 98
2020-03-23 08:00:00 10.8 4 Norte 8 Norte 1.2 -- -- 99
2020-03-23 07:00:00 10.6 4 Noroeste 8 Noroeste 1.4 -- -- 98
2020-03-23 06:00:00 10.6 6 Noroeste 8 Noroeste 0.6 -- -- 98
2020-03-23 05:00:00 10.6 3 Noroeste 6 Oeste 0.4 -- -- 98
2020-03-23 04:00:00 10.7 3 Oeste 8 Oeste 0.8 -- -- 98
2020-03-23 03:00:00 11.1 0 Calma 11 Norte 1 -- -- 95
2020-03-23 02:00:00 11.5 8 Norte 15 Norte 0 -- -- 92
2020-03-23 01:00:00 11.6 7 Norte 15 Noroeste 0 -- -- 90
2020-03-23 00:00:00 11.5 3 Norte 10 Nordeste 0 -- -- 89
2020-03-22 23:00:00 11.8 4 Norte 9 Nordeste 0 -- -- 89
2020-03-22 22:00:00 11.6 3 Norte 13 Norte 0 -- -- 90
2020-03-22 21:00:00 11.5 3 Norte 7 Norte 0 -- -- 90
2020-03-22 20:00:00 12 3 Norte 10 Este 0 -- -- 88
2020-03-22 19:00:00 13.2 4 Nordeste 19 Este 0 -- -- 84
2020-03-22 18:00:00 14.5 10 Este 22 Sudeste 0 -- -- 78
2020-03-22 17:00:00 14.8 11 Sudeste 20 Este 0.8 -- -- 79
2020-03-22 16:00:00 14.9 5 Nordeste 17 Este 0 -- -- 80
2020-03-22 15:00:00 15.4 6 Nordeste 22 Este 0 -- -- 73
2020-03-22 14:00:00 14.8 7 Este 21 Sudeste 0 -- -- 77
2020-03-22 13:00:00 15.4 8 Este 14 Este 0 -- -- 70
2020-03-22 12:00:00 14.8 6 Este 24 Este 0 -- -- 69
2020-03-22 11:00:00 15.7 9 Nordeste 21 Este 0 -- -- 67
2020-03-22 10:00:00 15.2 8 Este 15 Nordeste 0 -- -- 74
2020-03-22 09:00:00 13.1 4 Nordeste 9 Nordeste 0 -- -- 84
2020-03-22 08:00:00 9.6 4 Noroeste 9 Noroeste 0 -- -- 96
2020-03-22 07:00:00 9 8 Noroeste 11 Noroeste 0 -- -- 99
2020-03-22 06:00:00 6.6 4 Noroeste 7 Noroeste 0 -- -- 98
2020-03-22 05:00:00 7.4 0 Calma 8 Noroeste 0 -- -- 94
2020-03-22 04:00:00 9.1 5 Noroeste 8 Noroeste 0 -- -- 96
2020-03-22 03:00:00 9.1 6 Noroeste 9 Noroeste 0 -- -- 96
2020-03-22 02:00:00 9.8 6 Noroeste 8 Noroeste 0 -- -- 97
2020-03-22 01:00:00 9.8 4 Noroeste 6 Noroeste 0 -- -- 96
2020-03-22 00:00:00 10 5 Noroeste 6 Noroeste 0 -- -- 96
2020-03-21 23:00:00 10.2 4 Noroeste 6 Norte 0 -- -- 95
2020-03-21 22:00:00 11.2 3 Norte 8 Nordeste 0 -- -- 91
2020-03-21 21:00:00 10.7 4 Noroeste 6 Sudoeste 0 -- -- 95
2020-03-21 20:00:00 12.2 4 Sudeste 9 Sudeste 0 -- -- 86
2020-03-21 19:00:00 13.4 5 Sudeste 13 Sudeste 0 -- -- 80
2020-03-21 18:00:00 14.6 8 Sudeste 17 Este 0 -- -- 73
2020-03-21 17:00:00 15.7 9 Sudeste 14 Sudeste 0 -- -- 66
2020-03-21 16:00:00 15.6 7 Este 19 Sudeste 0 -- -- 65
2020-03-21 15:00:00 17.2 9 Sudeste 17 Este 0 -- -- 56
2020-03-21 14:00:00 16.6 5 Sur 12 Este 0 -- -- 56
2020-03-21 13:00:00 16.4 7 Este 15 Este 0 -- -- 56
2020-03-21 12:00:00 15.9 10 Sudeste 21 Este 0 -- -- 58
2020-03-21 11:00:00 14.6 4 Este 7 Nordeste 0 -- -- 64
2020-03-21 10:00:00 10 2 Oeste 5 Este 0 -- -- 78
2020-03-21 09:00:00 7.5 2 Este 5 Noroeste 0 -- -- 87
2020-03-21 08:00:00 4.2 3 Noroeste 5 Noroeste 0 -- -- 98
2020-03-21 07:00:00 2.7 3 Noroeste 13 Noroeste 0 -- -- 94
2020-03-21 06:00:00 3.7 4 Noroeste 13 Noroeste 0 -- -- 90
2020-03-21 05:00:00 4.4 11 Noroeste 18 Noroeste 0 -- -- 91
2020-03-21 04:00:00 4.6 9 Noroeste 15 Noroeste 0 -- -- 90
2020-03-21 03:00:00 4.2 9 Noroeste 13 Noroeste 0 -- -- 92
2020-03-21 02:00:00 5.2 6 Noroeste 13 Noroeste 0 -- -- 89
2020-03-21 01:00:00 5.7 8 Noroeste 11 Noroeste 0 -- -- 89
2020-03-21 00:00:00 6.6 6 Noroeste 13 Noroeste 0 -- -- 90
2020-03-20 23:00:00 6.5 9 Noroeste 14 Noroeste 0 -- -- 93
2020-03-20 22:00:00 6.9 10 Noroeste 13 Noroeste 0 -- -- 93
2020-03-20 21:00:00 7.9 10 Noroeste 14 Noroeste 0 -- -- 93
2020-03-20 20:00:00 8 7 Noroeste 8 Noroeste 0 -- -- 93
2020-03-20 19:00:00 12.8 4 Sudeste 12 Este 0 -- -- 76
2020-03-20 18:00:00 15.3 6 Este 18 Sudeste 0 -- -- 58
2020-03-20 17:00:00 15.5 13 Sudeste 24 Sudeste 0 -- -- 61
2020-03-20 16:00:00 17 11 Sudeste 22 Sudeste 0 -- -- 56
2020-03-20 15:00:00 16.5 13 Sudeste 28 Este 0 -- -- 52
2020-03-20 14:00:00 17.4 12 Este 24 Este 0 -- -- 41
2020-03-20 13:00:00 16.6 12 Sudeste 33 Sudeste 0 -- -- 54
2020-03-20 12:00:00 15.6 9 Sudeste 17 Este 0 -- -- 61
2020-03-20 11:00:00 15 6 Este 14 Este 0 -- -- 66
2020-03-20 10:00:00 12 2 Oeste 6 Sudeste 0 -- -- 77
2020-03-20 09:00:00 8.9 2 Noroeste 10 Este 0 -- -- 89
2020-03-20 08:00:00 5.8 3 Norte 10 Noroeste 0 -- -- 92
2020-03-20 07:00:00 3.4 9 Noroeste 12 Noroeste 0 -- -- 97
2020-03-20 06:00:00 3.8 6 Noroeste 10 Noroeste 0 -- -- 95
2020-03-20 05:00:00 4.1 4 Noroeste 14 Noroeste 0 -- -- 94
2020-03-20 04:00:00 4.6 10 Noroeste 17 Noroeste 0 -- -- 94
2020-03-20 03:00:00 4.7 10 Noroeste 14 Noroeste 0 -- -- 94
2020-03-20 02:00:00 4.5 8 Noroeste 12 Noroeste 0 -- -- 95
2020-03-20 01:00:00 5.2 8 Noroeste 14 Noroeste 0 -- -- 93
2020-03-20 00:00:00 5.9 9 Noroeste 12 Noroeste 0 -- -- 94
2020-03-19 23:00:00 6.6 9 Noroeste 12 Noroeste 0 -- -- 94
2020-03-19 22:00:00 7 7 Noroeste 11 Noroeste 0 -- -- 95
2020-03-19 21:00:00 7.4 9 Noroeste 12 Noroeste 0 -- -- 95
2020-03-19 20:00:00 8.2 3 Noroeste 5 Noroeste 0 -- -- 91
2020-03-19 19:00:00 10.7 0 Calma 8 Sur 0 -- -- 85
2020-03-19 18:00:00 13 8 Sur 17 Sudeste 0 -- -- 76
2020-03-19 17:00:00 15.5 11 Sudeste 16 Sudeste 0 -- -- 68
2020-03-19 16:00:00 16.6 11 Sudeste 20 Sudeste 0 -- -- 63
2020-03-19 15:00:00 16.7 12 Sudeste 22 Sudeste 0 -- -- 66
2020-03-19 14:00:00 16.1 10 Sudeste 21 Sudeste 0 -- -- 68
2020-03-19 13:00:00 16.1 15 Sudeste 24 Sudeste 0 -- -- 69
2020-03-19 12:00:00 16.2 12 Sudeste 18 Sudeste 0 -- -- 67
2020-03-19 11:00:00 14.8 6 Sudeste 12 Sudeste 0 -- -- 73
2020-03-19 10:00:00 12.1 5 Sur 9 Este 0 -- -- 81
2020-03-19 09:00:00 9.5 4 Sudeste 5 Sudeste 0 -- -- 90
2020-03-19 08:00:00 6.3 0 Calma 8 Noroeste 0 -- -- 100
2020-03-19 07:00:00 5.2 7 Noroeste 10 Noroeste 0 -- -- 98
2020-03-19 06:00:00 4.9 4 Noroeste 9 Noroeste 0 -- -- 97
2020-03-19 05:00:00 5.2 4 Noroeste 9 Noroeste 0 -- -- 95
2020-03-19 04:00:00 6.1 6 Noroeste 12 Noroeste 0 -- -- 95
2020-03-19 03:00:00 6.1 8 Noroeste 12 Noroeste 0 -- -- 95
2020-03-19 02:00:00 6.9 8 Noroeste 13 Noroeste 0 -- -- 95
2020-03-19 01:00:00 7.2 8 Noroeste 11 Noroeste 0 -- -- 95
2020-03-19 00:00:00 7.4 8 Noroeste 11 Noroeste 0 -- -- 93
2020-03-18 23:00:00 8.3 8 Noroeste 11 Noroeste 0 -- -- 93
2020-03-18 22:00:00 8.3 6 Noroeste 11 Noroeste 0 -- -- 93
2020-03-18 21:00:00 9.2 9 Noroeste 12 Oeste 0 -- -- 91
2020-03-18 20:00:00 10.4 4 Noroeste 6 Noroeste 0 -- -- 88
2020-03-18 19:00:00 13.7 4 Sur 11 Sudeste 0 -- -- 73
2020-03-18 18:00:00 15.8 5 Sudeste 9 Sur 0 -- -- 69
2020-03-18 17:00:00 16.3 7 Sur 12 Sudeste 0 -- -- 63
2020-03-18 16:00:00 17.1 9 Sudeste 14 Este 0 -- -- 61
2020-03-18 15:00:00 17.2 8 Sudeste 14 Sudeste 0 -- -- 61
2020-03-18 14:00:00 17.1 8 Sudeste 14 Sudeste 0 -- -- 57
2020-03-18 13:00:00 16.8 5 Este 13 Este 0 -- -- 58
2020-03-18 12:00:00 14.9 5 Oeste 9 Oeste 0 -- -- 68
2020-03-18 11:00:00 13.4 0 Calma 4 Oeste 0 -- -- 73
2020-03-18 10:00:00 11.4 0 Calma 4 Este 0 -- -- 87
2020-03-18 09:00:00 9.3 0 Calma 6 Noroeste 0 -- -- 94
2020-03-18 08:00:00 7.6 4 Noroeste 7 Oeste 0 -- -- 97
2020-03-18 07:00:00 7.1 3 Noroeste 10 Este 0 -- -- 96
2020-03-18 06:00:00 8 4 Noroeste 12 Noroeste 0 -- -- 94
2020-03-18 05:00:00 8.3 6 Noroeste 12 Noroeste 0 -- -- 96
2020-03-18 04:00:00 7.9 3 Noroeste 6 Oeste 0 -- -- 97
2020-03-18 03:00:00 8.9 6 Noroeste 10 Noroeste 0 -- -- 95
2020-03-18 02:00:00 9.2 7 Noroeste 11 Noroeste 0 -- -- 94
2020-03-18 01:00:00 9.7 8 Noroeste 11 Noroeste 0 -- -- 94
2020-03-18 00:00:00 9.2 6 Noroeste 8 Noroeste 0 -- -- 95
2020-03-17 23:00:00 9.9 6 Noroeste 10 Noroeste 0 -- -- 93
2020-03-17 22:00:00 11 6 Noroeste 9 Noroeste 0 -- -- 91
2020-03-17 21:00:00 11.4 4 Noroeste 9 Noroeste 0 -- -- 91
2020-03-17 20:00:00 11.5 6 Noroeste 9 Noroeste 0 -- -- 90
2020-03-17 19:00:00 14.3 0 Calma 11 Este 0 -- -- 72
2020-03-17 18:00:00 15.5 6 Este 20 Este 0 -- -- 66
2020-03-17 17:00:00 15.9 6 Nordeste 21 Este 0 -- -- 66
2020-03-17 16:00:00 16.4 10 Nordeste 28 Nordeste 0 -- -- 66
2020-03-17 15:00:00 15.9 10 Nordeste 24 Norte 0 -- -- 68
2020-03-17 14:00:00 15.1 9 Nordeste 19 Nordeste 0 -- -- 77
2020-03-17 13:00:00 15.3 8 Este 22 Este 0 -- -- 78
2020-03-17 12:00:00 14.5 8 Este 16 Este 0 -- -- 80
2020-03-17 11:00:00 14.2 5 Nordeste 13 Este 0 -- -- 81
2020-03-17 10:00:00 13.6 4 Este 8 Este 0 -- -- 83
2020-03-17 09:00:00 13 6 Norte 16 Norte 0 -- -- 85
2020-03-17 08:00:00 13.1 7 Norte 17 Norte 0 -- -- 83
2020-03-17 07:00:00 12.9 4 Norte 16 Norte 0 -- -- 84
2020-03-17 06:00:00 12.8 6 Norte 22 Este 0 -- -- 84
2020-03-17 05:00:00 11.2 3 Noroeste 11 Oeste 0 -- -- 91
2020-03-17 04:00:00 11 9 Oeste 18 Norte 0 -- -- 90
2020-03-17 03:00:00 12.5 4 Norte 23 Norte 0.2 -- -- 80
2020-03-17 02:00:00 12.5 6 Norte 21 Nordeste 0 -- -- 79
2020-03-17 01:00:00 12.5 5 Nordeste 22 Norte 0 -- -- 77
2020-03-17 00:00:00 12.6 14 Norte 31 Norte 0 -- -- 81
2020-03-16 23:00:00 12 12 Norte 28 Norte 0 -- -- 91
2020-03-16 22:00:00 12.4 13 Norte 28 Norte 0 -- -- 88
2020-03-16 21:00:00 12.2 12 Norte 32 Nordeste 0 -- -- 90
2020-03-16 20:00:00 12.3 12 Norte 32 Nordeste 0 -- -- 93
2020-03-16 19:00:00 12.2 11 Norte 24 Norte 0 -- -- 94
2020-03-16 18:00:00 11.9 9 Norte 22 Este 6 -- -- 96
2020-03-16 17:00:00 11.9 5 Nordeste 19 Este 2.6 -- -- 96
2020-03-16 16:00:00 12 9 Norte 28 Nordeste 2.2 -- -- 95
2020-03-16 15:00:00 12.1 8 Nordeste 32 Nordeste 5.4 -- -- 96
2020-03-16 14:00:00 12.3 14 Norte 26 Norte 3.8 -- -- 96
2020-03-16 13:00:00 12.5 9 Nordeste 34 Nordeste 2.6 -- -- 92
2020-03-16 12:00:00 13.1 11 Nordeste 31 Norte 0 -- -- 84
2020-03-16 11:00:00 13.2 9 Norte 30 Norte 0 -- -- 80
2020-03-16 10:00:00 13.1 12 Nordeste 32 Norte 0 -- -- 77
2020-03-16 09:00:00 12.5 9 Nordeste 25 Norte 0 -- -- 80
2020-03-16 08:00:00 11.7 11 Norte 23 Norte 0 -- -- 82
2020-03-16 07:00:00 11.7 7 Nordeste 17 Nordeste 0 -- -- 86
2020-03-16 06:00:00 11.6 8 Norte 14 Norte 0 -- -- 84
2020-03-16 05:00:00 11.5 4 Noroeste 12 Nordeste 0 -- -- 87
2020-03-16 04:00:00 12 5 Norte 12 Nordeste 0 -- -- 87
2020-03-16 03:00:00 12.1 7 Norte 15 Norte 0 -- -- 89
2020-03-16 02:00:00 12.2 3 Norte 11 Nordeste 0 -- -- 91
2020-03-16 01:00:00 12.1 2 Nordeste 8 Nordeste 0 -- -- 91
2020-03-16 00:00:00 12 2 Norte 7 Norte 0 -- -- 90
2020-03-15 23:00:00 11.7 2 Norte 5 Norte 0 -- -- 91
2020-03-15 22:00:00 11.5 0 Calma 4 Noroeste 0 -- -- 92
2020-03-15 21:00:00 10.1 3 Noroeste 4 Noroeste 0 -- -- 95
2020-03-15 20:00:00 12.5 4 Este 14 Sudeste 0 -- -- 87
2020-03-15 19:00:00 12.8 12 Sudeste 21 Sudeste 0 -- -- 87
2020-03-15 18:00:00 13.9 15 Sudeste 30 Sudeste 0 -- -- 82
2020-03-15 17:00:00 16.3 19 Sudeste 27 Sudeste 0 -- -- 72
2020-03-15 16:00:00 17 12 Sudeste 23 Sudeste 0 -- -- 64
2020-03-15 15:00:00 15.7 13 Sudeste 24 Este 0 -- -- 73
2020-03-15 14:00:00 16.5 18 Sudeste 26 Sudeste 0 -- -- 71
2020-03-15 13:00:00 17 12 Sur 24 Sur 0 -- -- 63
2020-03-15 12:00:00 15.7 9 Sur 21 Sur 0 -- -- 70
2020-03-15 11:00:00 14.6 8 Sudeste 18 Sudeste 0 -- -- 72
2020-03-15 10:00:00 13 5 Sudeste 12 Sudeste 0 -- -- 82
2020-03-15 09:00:00 10.5 4 Sudeste 6 Sudeste 0 -- -- 94
2020-03-15 08:00:00 8 2 Sudeste 8 Noroeste 0 -- -- 97
2020-03-15 07:00:00 8.5 6 Noroeste 10 Noroeste 0 -- -- 94
2020-03-15 06:00:00 9 8 Noroeste 12 Noroeste 0 -- -- 94
2020-03-15 05:00:00 8.4 8 Noroeste 12 Noroeste 0 -- -- 94
2020-03-15 04:00:00 8.6 7 Noroeste 13 Noroeste 0 -- -- 95
2020-03-15 03:00:00 8.2 5 Noroeste 14 Noroeste 0 -- -- 97
2020-03-15 02:00:00 7.7 11 Noroeste 14 Noroeste 0 -- -- 95
2020-03-15 01:00:00 7.5 8 Noroeste 10 Noroeste 0 -- -- 95
2020-03-15 00:00:00 8.2 5 Noroeste 9 Oeste 0 -- -- 96
2020-03-14 23:00:00 8.5 5 Noroeste 12 Noroeste 0 -- -- 94
2020-03-14 22:00:00 8.8 6 Noroeste 8 Noroeste 0 -- -- 95
2020-03-14 21:00:00 10.4 0 Calma 6 Sudeste 0 -- -- 88
2020-03-14 20:00:00 13 4 Sudeste 12 Sudeste 0 -- -- 85
2020-03-14 19:00:00 14.1 5 Este 10 Este 0 -- -- 84
2020-03-14 18:00:00 14.5 2 Este 10 Este 0 -- -- 83
2020-03-14 17:00:00 14.4 6 Este 15 Este 0 -- -- 83
2020-03-14 16:00:00 15.1 10 Este 22 Sudeste 0 -- -- 79
2020-03-14 15:00:00 16.2 13 Este 21 Este 0 -- -- 77
2020-03-14 14:00:00 16.7 6 Este 14 Este 0 -- -- 73
2020-03-14 13:00:00 16.6 4 Sudoeste 8 Sudeste 0 -- -- 73
2020-03-14 12:00:00 15.9 4 Este 10 Este 0 -- -- 75
2020-03-14 11:00:00 14.9 4 Sur 8 Nordeste 0 -- -- 81
2020-03-14 10:00:00 13.5 2 Este 9 Norte 0 -- -- 85
2020-03-14 09:00:00 12.3 0 Calma 4 Oeste 0 -- -- 96
2020-03-14 08:00:00 10.7 0 Calma 6 Sudeste 0 -- -- 97
2020-03-14 07:00:00 10.8 3 Sudeste 6 Oeste 0 -- -- 98
2020-03-14 06:00:00 10.7 0 Calma 6 Sudeste 0 -- -- 97
2020-03-14 05:00:00 10.5 3 Noroeste 5 Noroeste 0 -- -- 98
2020-03-14 04:00:00 10 0 Calma 4 Sudoeste 0 -- -- 99
2020-03-14 03:00:00 8.8 2 Oeste 5 Noroeste 0 -- -- 99
2020-03-14 02:00:00 8 3 Noroeste 5 Noroeste 0 -- -- 98
2020-03-14 01:00:00 9.1 2 Noroeste 4 Noroeste 0 -- -- 96
2020-03-14 00:00:00 9.9 0 Calma -- -- 0 -- -- 97
2020-03-13 23:00:00 9.9 0 Calma 6 Noroeste 0 -- -- 97
2020-03-13 22:00:00 9.1 3 Noroeste 5 Noroeste 0 -- -- 95
2020-03-13 21:00:00 11.6 2 Noroeste 5 Noroeste 0 -- -- 91
2020-03-13 20:00:00 13.2 3 Nordeste 6 Nordeste 0 -- -- 87
2020-03-13 19:00:00 14.5 2 Norte 9 Este 0 -- -- 82
2020-03-13 18:00:00 17 8 Sudeste 17 Sudeste 0 -- -- 74
2020-03-13 17:00:00 19.7 10 Sur 21 Sudoeste 0 -- -- 54
2020-03-13 16:00:00 20.3 7 Sur 21 Sudoeste 0 -- -- 52
2020-03-13 15:00:00 20.4 12 Sur 24 Sur 0 -- -- 54
2020-03-13 14:00:00 19.8 10 Sur 20 Sudoeste 0 -- -- 58
2020-03-13 13:00:00 19.1 10 Sur 16 Sur 0 -- -- 59
2020-03-13 12:00:00 17.9 7 Sudeste 13 Sudeste 0 -- -- 67
2020-03-13 11:00:00 15.8 4 Sudeste 8 Sudeste 0 -- -- 75
2020-03-13 10:00:00 13.6 4 Sudeste 8 Nordeste 0 -- -- 82
2020-03-13 09:00:00 11.4 4 Este 8 Oeste 0 -- -- 94
2020-03-13 08:00:00 8.5 5 Noroeste 8 Oeste 0 -- -- 98
2020-03-13 07:00:00 6.8 4 Noroeste 6 Noroeste 0 -- -- 97
2020-03-13 06:00:00 7.7 3 Noroeste 9 Oeste 0 -- -- 95
2020-03-13 05:00:00 9.1 4 Noroeste 15 Noroeste 0 -- -- 92
2020-03-13 04:00:00 9.3 10 Noroeste 14 Noroeste 0 -- -- 93
2020-03-13 03:00:00 9.7 10 Noroeste 14 Oeste 0 -- -- 92
2020-03-13 02:00:00 10.4 9 Noroeste 13 Noroeste 0 -- -- 90
2020-03-13 01:00:00 10.2 8 Noroeste 12 Oeste 0 -- -- 92
2020-03-13 00:00:00 11 6 Noroeste 11 Noroeste 0 -- -- 90
2020-03-12 23:00:00 9.5 5 Noroeste 7 Noroeste 0 -- -- 93
2020-03-12 22:00:00 13 2 Norte 14 Norte 0 -- -- 83
2020-03-12 21:00:00 13.9 6 Norte 14 Norte 0 -- -- 83
2020-03-12 20:00:00 11.7 4 Noroeste 6 Noroeste 0 -- -- 87
2020-03-12 19:00:00 14.6 0 Calma 7 Sudeste 0 -- -- 77
2020-03-12 18:00:00 17.7 6 Sudeste 14 Sur 0 -- -- 69
2020-03-12 17:00:00 19.2 12 Sudeste 19 Sudeste 0 -- -- 63
2020-03-12 16:00:00 22.9 10 Sudeste 15 Sudeste 0 -- -- 52
2020-03-12 15:00:00 23.4 7 Sudeste 15 Sur 0 -- -- 45
2020-03-12 14:00:00 22.6 4 Este 12 Sudeste 0 -- -- 49
2020-03-12 13:00:00 21.1 7 Sudeste 15 Este 0 -- -- 53
2020-03-12 12:00:00 20 9 Sudeste 14 Este 0 -- -- 56
2020-03-12 11:00:00 17.9 3 Sudoeste 5 Sudoeste 0 -- -- 67
2020-03-12 10:00:00 15.2 4 Sudeste 7 Sudeste 0 -- -- 75
2020-03-12 09:00:00 11.2 0 Calma 3 Este 0 -- -- 99
2020-03-12 08:00:00 6.5 3 Noroeste 4 Noroeste 0 -- -- 99
2020-03-12 07:00:00 5.8 0 Calma 9 Noroeste 0 -- -- 96
2020-03-12 06:00:00 6.6 5 Noroeste 9 Noroeste 0 -- -- 96
2020-03-12 05:00:00 6.3 3 Noroeste 5 Noroeste 0 -- -- 95
2020-03-12 04:00:00 7 2 Noroeste 10 Noroeste 0 -- -- 95
2020-03-12 03:00:00 6.7 6 Noroeste 8 Noroeste 0 -- -- 97
2020-03-12 02:00:00 6.9 5 Noroeste 10 Noroeste 0 -- -- 95
2020-03-12 01:00:00 8.1 7 Noroeste 10 Noroeste 0 -- -- 94
2020-03-12 00:00:00 9.3 6 Noroeste 9 Noroeste 0 -- -- 93
2020-03-11 23:00:00 9.4 7 Noroeste 12 Noroeste 0 -- -- 93
2020-03-11 22:00:00 9.9 6 Noroeste 9 Noroeste 0 -- -- 92
2020-03-11 21:00:00 9 4 Noroeste 6 Noroeste 0 -- -- 92
2020-03-11 20:00:00 10 0 Calma 5 Noroeste 0 -- -- 90
2020-03-11 19:00:00 13 2 Noroeste 12 Sudeste 0 -- -- 79
2020-03-11 18:00:00 17.2 10 Sudeste 13 Sudeste 0 -- -- 67
2020-03-11 17:00:00 18.7 10 Sudeste 16 Sur 0 -- -- 61
2020-03-11 16:00:00 19.8 12 Sudeste 19 Sudeste 0 -- -- 58
2020-03-11 15:00:00 20.8 14 Sudeste 20 Sudeste 0 -- -- 56
2020-03-11 14:00:00 20.9 9 Sudeste 15 Sudeste 0 -- -- 52
2020-03-11 13:00:00 19.7 6 Sudeste 13 Sudeste 0 -- -- 53
2020-03-11 12:00:00 18.2 6 Sudeste 13 Sudeste 0 -- -- 57
2020-03-11 11:00:00 16.2 5 Sudeste 9 Este 0 -- -- 65
2020-03-11 10:00:00 13.4 5 Sudeste 7 Sudeste 0 -- -- 73
2020-03-11 09:00:00 10.8 2 Sudeste 6 Noroeste 0 -- -- 86
2020-03-11 08:00:00 5.5 4 Noroeste 6 Noroeste 0 -- -- 97
2020-03-11 07:00:00 4.9 0 Calma 10 Noroeste 0 -- -- 94
2020-03-11 06:00:00 6 9 Noroeste 13 Noroeste 0 -- -- 93
2020-03-11 05:00:00 5.4 7 Noroeste 10 Oeste 0 -- -- 94
2020-03-11 04:00:00 5.6 5 Noroeste 10 Noroeste 0 -- -- 94
2020-03-11 03:00:00 5.2 3 Noroeste 9 Oeste 0 -- -- 92
2020-03-11 02:00:00 5.5 4 Noroeste 7 Noroeste 0 -- -- 91
2020-03-11 01:00:00 7.4 3 Noroeste 13 Noroeste 0 -- -- 84
2020-03-11 00:00:00 6.1 6 Noroeste 9 Noroeste 0 -- -- 90
2020-03-10 23:00:00 7.6 4 Noroeste 10 Noroeste 0 -- -- 84
2020-03-10 22:00:00 7.5 5 Noroeste 13 Noroeste 0 -- -- 87
2020-03-10 21:00:00 8.1 3 Oeste 5 Noroeste 0 -- -- 83
2020-03-10 20:00:00 11.4 3 Este 12 Sudeste 0 -- -- 70
2020-03-10 19:00:00 13.2 5 Noroeste 13 Oeste 0 -- -- 58
2020-03-10 18:00:00 13.8 8 Oeste 13 Oeste 0 -- -- 62
2020-03-10 17:00:00 15.1 8 Oeste 24 Sudoeste 0 -- -- 59
2020-03-10 16:00:00 15.9 13 Sudoeste 24 Sur 0 -- -- 52
2020-03-10 15:00:00 16.6 14 Sudeste 23 Sur 0 -- -- 54
2020-03-10 14:00:00 18.1 7 Este 17 Sudeste 0 -- -- 49
2020-03-10 13:00:00 17.5 9 Sur 23 Sudeste 0 -- -- 50
2020-03-10 12:00:00 16.1 6 Sur 15 Sudeste 0 -- -- 56
2020-03-10 11:00:00 13.8 7 Sudeste 12 Este 0 -- -- 62
2020-03-10 10:00:00 11.8 5 Sudeste 9 Sudeste 0 -- -- 64
2020-03-10 09:00:00 8.5 5 Este 6 Este 0 -- -- 80
2020-03-10 08:00:00 4.2 4 Oeste 8 Sudeste 0 -- -- 93
2020-03-10 07:00:00 4.5 3 Oeste 7 Sudoeste 0 -- -- 88
2020-03-10 06:00:00 6.4 3 Sur 11 Este 0 -- -- 86
2020-03-10 05:00:00 7.6 3 Oeste 13 Noroeste 0 -- -- 75
2020-03-10 04:00:00 5.7 3 Sudoeste 10 Sudoeste 0 -- -- 94
2020-03-10 03:00:00 7 5 Sudoeste 10 Sudoeste 0 -- -- 94
2020-03-10 02:00:00 6.2 6 Noroeste 8 Oeste 0 -- -- 93
2020-03-10 01:00:00 7.1 7 Noroeste 12 Noroeste 0 -- -- 92
2020-03-10 00:00:00 8.2 8 Noroeste 10 Oeste 0 -- -- 91
2020-03-09 23:00:00 7.1 6 Noroeste 9 Noroeste 0 -- -- 91
2020-03-09 22:00:00 9.6 3 Noroeste -- -- 0 -- -- 88
2020-03-09 21:00:00 10.4 0 Calma 4 Oeste 0 -- -- 85
2020-03-09 20:00:00 10.3 2 Noroeste 8 Nordeste 0 -- -- 84
2020-03-09 19:00:00 11.4 6 Sudeste 19 Este 0 -- -- 78
2020-03-09 18:00:00 12.2 9 Este 23 Este 0 -- -- 75
2020-03-09 17:00:00 13.3 13 Este 27 Sudeste 0 -- -- 72
2020-03-09 16:00:00 14.9 15 Este 28 Nordeste 0 -- -- 65
2020-03-09 15:00:00 17 13 Este 31 Sudeste 0 -- -- 55
2020-03-09 14:00:00 17.6 11 Sudoeste 24 Sudeste 0 -- -- 41
2020-03-09 13:00:00 17.7 11 Sur 23 Sudeste 0 -- -- 44
2020-03-09 12:00:00 16 12 Sudeste 20 Sudeste 0 -- -- 60
2020-03-09 11:00:00 14.8 6 Sudeste 11 Sudeste 0 -- -- 69
2020-03-09 10:00:00 11.9 5 Sudeste 9 Este 0 -- -- 78
2020-03-09 09:00:00 9.6 3 Noroeste 10 Este 0 -- -- 87
2020-03-09 08:00:00 7.1 0 Calma 8 Noroeste 0 -- -- 97
2020-03-09 07:00:00 4.4 3 Noroeste 6 Oeste 0 -- -- 97
2020-03-09 06:00:00 5.5 2 Sudeste 12 Sudeste 0 -- -- 92
2020-03-09 05:00:00 6.2 3 Oeste 13 Noroeste 0 -- -- 93
2020-03-09 04:00:00 6.9 9 Noroeste 15 Noroeste 0 -- -- 90
2020-03-09 03:00:00 6.6 8 Noroeste 17 Noroeste 0 -- -- 90
2020-03-09 02:00:00 7.1 10 Noroeste 14 Noroeste 0 -- -- 90
2020-03-09 01:00:00 7.3 8 Noroeste 13 Noroeste 0 -- -- 88
2020-03-09 00:00:00 7.6 7 Noroeste 12 Noroeste 0 -- -- 89
2020-03-08 23:00:00 8.1 9 Noroeste 16 Noroeste 0 -- -- 88
2020-03-08 22:00:00 8 10 Noroeste 14 Noroeste 0 -- -- 89
2020-03-08 21:00:00 9.2 5 Noroeste 8 Noroeste 0 -- -- 85
2020-03-08 20:00:00 10.5 4 Noroeste 6 Oeste 0 -- -- 84
2020-03-08 19:00:00 12.4 2 Sudeste 7 Este 0 -- -- 74
2020-03-08 18:00:00 15 5 Sudeste 13 Este 0 -- -- 63
2020-03-08 17:00:00 15.3 8 Este 22 Sudeste 0 -- -- 59
2020-03-08 16:00:00 15.9 14 Sudeste 26 Este 0 -- -- 58
2020-03-08 15:00:00 17.9 11 Sudeste 24 Este 0 -- -- 51
2020-03-08 14:00:00 18.3 10 Sudeste 24 Este 0 -- -- 47
2020-03-08 13:00:00 17.2 13 Sudeste 18 Sudeste 0 -- -- 51
2020-03-08 12:00:00 16.1 8 Sudeste 15 Sudoeste 0 -- -- 56
2020-03-08 11:00:00 14 6 Sudeste 11 Sudeste 0 -- -- 65
2020-03-08 10:00:00 11.5 6 Sudeste 9 Este 0 -- -- 72
2020-03-08 09:00:00 9.1 2 Nordeste 6 Noroeste 0 -- -- 84
2020-03-08 08:00:00 3.5 3 Noroeste 9 Noroeste 0 -- -- 96
2020-03-08 07:00:00 2.9 8 Noroeste 9 Oeste 0 -- -- 96
2020-03-08 06:00:00 3.9 3 Sudoeste 6 Noroeste 0 -- -- 92
2020-03-08 05:00:00 5.8 3 Sur 8 Noroeste 0 -- -- 88
2020-03-08 04:00:00 6.8 3 Noroeste 10 Noroeste 0 -- -- 85
2020-03-08 03:00:00 7.1 8 Noroeste 16 Noroeste 0 -- -- 83
2020-03-08 02:00:00 6.8 12 Noroeste 16 Noroeste 0 -- -- 86
2020-03-08 01:00:00 6.8 12 Noroeste 15 Noroeste 0 -- -- 87
2020-03-08 00:00:00 6.8 12 Noroeste 15 Noroeste 0 -- -- 87
2020-03-07 23:00:00 7.1 13 Noroeste 17 Noroeste 0 -- -- 85
2020-03-07 22:00:00 7.2 9 Noroeste 13 Noroeste 0 -- -- 84
2020-03-07 21:00:00 6.7 9 Noroeste 10 Noroeste 0 -- -- 87
2020-03-07 20:00:00 8.1 5 Noroeste 9 Norte 0 -- -- 80
2020-03-07 19:00:00 11.7 4 Nordeste 11 Norte 0 -- -- 66
2020-03-07 18:00:00 14.5 5 Nordeste 19 Nordeste 0 -- -- 54
2020-03-07 17:00:00 15.7 9 Este 20 Este 0 -- -- 46
2020-03-07 16:00:00 16.2 10 Este 29 Sudeste 0 -- -- 43
2020-03-07 15:00:00 15.7 12 Este 28 Norte 0 -- -- 40
2020-03-07 14:00:00 16.2 16 Sur 32 Sur 0 -- -- 41
2020-03-07 13:00:00 15.7 17 Sur 28 Sur 0 -- -- 42
2020-03-07 12:00:00 14.6 14 Sudoeste 27 Sudoeste 0 -- -- 37
2020-03-07 11:00:00 13.1 13 Sudoeste 22 Sudoeste 0 -- -- 42
2020-03-07 10:00:00 9.4 4 Sudeste 13 Este 0 -- -- 59
2020-03-07 09:00:00 6 6 Este 11 Sudeste 0 -- -- 70
2020-03-07 08:00:00 1.2 3 Oeste 15 Norte 0 -- -- 83
2020-03-07 07:00:00 -0.5 4 Oeste 10 Oeste 0 -- -- 85
2020-03-07 06:00:00 0.3 6 Noroeste 9 Noroeste 0 -- -- 85
2020-03-07 05:00:00 0.3 5 Noroeste 14 Noroeste 0 -- -- 82
2020-03-07 04:00:00 3.1 8 Oeste 17 Noroeste 0 -- -- 70
2020-03-07 03:00:00 3.2 5 Norte 15 Sudoeste 0 -- -- 70
2020-03-07 02:00:00 4.2 0 Calma 11 Sudeste 0 -- -- 67
2020-03-07 01:00:00 5.7 4 Norte 35 Oeste 0 -- -- 57
2020-03-07 00:00:00 8.2 19 Oeste 42 Oeste 0 -- -- 46
2020-03-06 23:00:00 8.1 15 Oeste 36 Oeste 0 -- -- 45
2020-03-06 22:00:00 8.8 19 Oeste 40 Oeste 0 -- -- 46
2020-03-06 21:00:00 9.9 24 Oeste 39 Oeste 0 -- -- 41
2020-03-06 20:00:00 7.7 5 Norte 19 Oeste 0 -- -- 79
2020-03-06 19:00:00 11.7 6 Norte 44 Oeste 0 -- -- 58
2020-03-06 18:00:00 13.8 13 Sudoeste 26 Sudoeste 0 -- -- 46
2020-03-06 17:00:00 13.6 13 Sudoeste 19 Oeste 0 -- -- 48
2020-03-06 16:00:00 12.8 9 Sudoeste 33 Noroeste 0 -- -- 48
2020-03-06 15:00:00 12.4 33 Oeste 68 Oeste 0 -- -- 40
2020-03-06 14:00:00 15.7 23 Oeste 39 Oeste 0 -- -- 44
2020-03-06 13:00:00 13.8 10 Oeste 32 Noroeste 0 -- -- 52
2020-03-06 12:00:00 13.6 16 Oeste 43 Oeste 0 -- -- 51
2020-03-06 11:00:00 11.5 8 Noroeste 22 Sudoeste 0 -- -- 54
2020-03-06 10:00:00 10.4 7 Nordeste 32 Sudoeste 0 -- -- 55
2020-03-06 09:00:00 9.1 6 Noroeste 18 Sudeste 0 -- -- 58
2020-03-06 08:00:00 5.4 6 Este 12 Sudeste 0 -- -- 77
2020-03-06 07:00:00 6.7 12 Noroeste 32 Oeste 0 -- -- 70
2020-03-06 06:00:00 6.6 8 Noroeste 25 Oeste 0 -- -- 69
2020-03-06 05:00:00 7.4 15 Noroeste 27 Noroeste 0 -- -- 66
2020-03-06 04:00:00 6.2 6 Noroeste 16 Oeste 0 -- -- 74
2020-03-06 03:00:00 6.8 4 Sudoeste 18 Noroeste 0 -- -- 74
2020-03-06 02:00:00 8.3 9 Oeste 30 Oeste 0 -- -- 69
2020-03-06 01:00:00 6.4 9 Noroeste 14 Noroeste 0 -- -- 80
2020-03-06 00:00:00 7.5 6 Noroeste 12 Noroeste 0 -- -- 81
2020-03-05 23:00:00 9.2 8 Noroeste 12 Noroeste 0 -- -- 83
2020-03-05 22:00:00 11.8 5 Este 13 Este 0 -- -- 60
2020-03-05 21:00:00 13.2 9 Sudeste 35 Oeste 0 -- -- 53
2020-03-05 20:00:00 15.3 22 Oeste 40 Sudoeste 0 -- -- 45
2020-03-05 19:00:00 16 19 Oeste 46 Sudoeste 0 -- -- 43
2020-03-05 18:00:00 17.3 33 Sudoeste 62 Sudoeste 0 -- -- 43
2020-03-05 17:00:00 17.6 25 Sudoeste 51 Sudoeste 0 -- -- 57
2020-03-05 16:00:00 18.7 27 Sudoeste 49 Oeste 0 -- -- 59
2020-03-05 15:00:00 20.3 22 Sudoeste 51 Sudoeste 0 -- -- 50
2020-03-05 14:00:00 19.2 27 Oeste 45 Oeste 0 -- -- 56
2020-03-05 13:00:00 18.8 21 Sudoeste 48 Sudoeste 0 -- -- 54
2020-03-05 12:00:00 18.2 28 Sudoeste 44 Sudoeste 0 -- -- 57
2020-03-05 11:00:00 17.3 12 Sur 29 Sudoeste 0 -- -- 63
2020-03-05 10:00:00 14.1 5 Este 17 Sudeste 0 -- -- 77
2020-03-05 09:00:00 9.5 0 Calma 4 Oeste 0 -- -- 100
2020-03-05 08:00:00 5 0 Calma 5 Noroeste 0 -- -- 100
2020-03-05 07:00:00 5.6 3 Norte 8 Noroeste 0 -- -- 100
2020-03-05 06:00:00 5.3 0 Calma 7 Noroeste 0 -- -- 98
2020-03-05 05:00:00 6.1 3 Noroeste 6 Norte 0 -- -- 98
2020-03-05 04:00:00 6.2 5 Noroeste 8 Noroeste 0 -- -- 97
2020-03-05 03:00:00 7.7 4 Sudeste 9 Noroeste 0 -- -- 97
2020-03-05 02:00:00 7.1 6 Noroeste 8 Noroeste 0 -- -- 96
2020-03-05 01:00:00 7.4 3 Norte 9 Oeste 0 -- -- 96
2020-03-05 00:00:00 7.8 6 Noroeste 11 Oeste 0 -- -- 94
2020-03-04 23:00:00 8.1 4 Noroeste 11 Noroeste 0 -- -- 94
2020-03-04 22:00:00 7.8 6 Noroeste 9 Noroeste 0 -- -- 94
2020-03-04 21:00:00 9.1 7 Noroeste 12 Noroeste 0 -- -- 92
2020-03-04 20:00:00 9.4 9 Noroeste 12 Noroeste 0 -- -- 90
2020-03-04 19:00:00 12.4 0 Calma 6 Norte 0 -- -- 80
2020-03-04 18:00:00 15 2 Nordeste 9 Este 0 -- -- 71
2020-03-04 17:00:00 14.4 3 Nordeste 15 Sudeste 0 -- -- 72
2020-03-04 16:00:00 14.6 8 Este 17 Sudeste 0 -- -- 74
2020-03-04 15:00:00 14.1 5 Nordeste 18 Este 0 -- -- 75
2020-03-04 14:00:00 15.1 10 Este 20 Este 0 -- -- 70
2020-03-04 13:00:00 16.2 4 Este 15 Sudeste 0 -- -- 53
2020-03-04 12:00:00 14.8 8 Este 17 Este 0 -- -- 64
2020-03-04 11:00:00 13.1 3 Norte 11 Este 0 -- -- 60
2020-03-04 10:00:00 10.2 3 Norte 9 Noroeste 0 -- -- 69
2020-03-04 09:00:00 6.8 6 Noroeste 11 Noroeste 0 -- -- 90
2020-03-04 08:00:00 3.8 5 Noroeste 10 Noroeste 0 -- -- 92
2020-03-04 07:00:00 3.8 5 Sudeste 11 Norte 0 -- -- 88
2020-03-04 06:00:00 3.7 3 Oeste 10 Sudeste 0 -- -- 89
2020-03-04 05:00:00 3.9 6 Oeste 11 Oeste 0 -- -- 89
2020-03-04 04:00:00 3.9 4 Sur 9 Noroeste 0 -- -- 85
2020-03-04 03:00:00 3.8 2 Noroeste 14 Sudoeste 0 -- -- 85
2020-03-04 02:00:00 4.9 5 Sudoeste 14 Sur 0 -- -- 85
2020-03-04 01:00:00 5.2 10 Oeste 15 Sudeste 0 -- -- 85
2020-03-04 00:00:00 6.9 5 Sudeste 9 Sudeste 0 -- -- 80
2020-03-03 23:00:00 9.4 3 Sudeste 20 Oeste 0 -- -- 71
2020-03-03 22:00:00 10.9 15 Noroeste 30 Oeste 0 -- -- 68
2020-03-03 21:00:00 11.2 18 Oeste 46 Oeste 0 -- -- 69
2020-03-03 20:00:00 11.8 24 Oeste 40 Oeste 0 -- -- 70
2020-03-03 19:00:00 11.5 21 Oeste 42 Oeste 0 -- -- 72
2020-03-03 18:00:00 12.5 28 Oeste 44 Oeste 0 -- -- 67
2020-03-03 17:00:00 12.8 23 Oeste 37 Noroeste 0 -- -- 66
2020-03-03 16:00:00 13.1 28 Oeste 45 Sur 0 -- -- 62
2020-03-03 15:00:00 12.2 20 Oeste 40 Sudoeste 0 -- -- 64
2020-03-03 14:00:00 11.6 26 Sudoeste 55 Sudoeste 0 -- -- 62
2020-03-03 13:00:00 13.2 24 Sudoeste 43 Sudoeste 0 -- -- 56
2020-03-03 12:00:00 12.8 18 Sudoeste 33 Oeste 0 -- -- 56
2020-03-03 11:00:00 9.4 3 Noroeste 14 Este 0 -- -- 64
2020-03-03 10:00:00 7.6 11 Sudeste 15 Este 0 -- -- 69
2020-03-03 09:00:00 6.2 3 Este 14 Sudeste 0 -- -- 74
2020-03-03 08:00:00 4.8 4 Noroeste 13 Noroeste 0 -- -- 79
2020-03-03 07:00:00 5.4 5 Sur 24 Oeste 0 -- -- 73
2020-03-03 06:00:00 5 5 Oeste 20 Noroeste 0 -- -- 73
2020-03-03 05:00:00 5.4 14 Oeste 28 Noroeste 0 -- -- 72
2020-03-03 04:00:00 5.8 15 Oeste 24 Noroeste 0 -- -- 70
2020-03-03 03:00:00 2.3 5 Norte 9 Norte 0 -- -- 86
2020-03-03 02:00:00 3.9 5 Sudoeste 19 Oeste 0 -- -- 77
2020-03-03 01:00:00 6.5 10 Oeste 36 Oeste 0 -- -- 65
2020-03-03 00:00:00 8.2 23 Oeste 37 Oeste 0 -- -- 58